createdAt,value
2017-10-01T00:02:03.907Z,22.03
2017-10-01T00:04:33.496Z,25.87
2017-10-01T00:07:01.383Z,19.57
2017-10-01T00:09:29.444Z,24.47
2017-10-01T00:11:57.389Z,23.50
2017-10-01T00:14:25.221Z,22.27
2017-10-01T00:16:53.047Z,22.07
2017-10-01T00:19:20.861Z,20.43
2017-10-01T00:21:48.676Z,24.27
2017-10-01T00:24:16.502Z,22.07
2017-10-01T00:26:44.317Z,12.87
2017-10-01T00:29:12.124Z,19.23
2017-10-01T00:31:39.957Z,17.97
2017-10-01T00:34:07.781Z,22.27
2017-10-01T00:36:35.601Z,16.23
2017-10-01T00:39:03.437Z,16.27
2017-10-01T00:41:31.276Z,20.67
2017-10-01T00:43:59.085Z,20.47
2017-10-01T00:46:26.895Z,26.97
2017-10-01T00:48:54.749Z,20.40
2017-10-01T00:51:22.553Z,21.53
2017-10-01T00:53:50.372Z,15.63
2017-10-01T00:56:18.187Z,16.47
2017-10-01T00:58:46.048Z,12.40
2017-10-01T01:01:13.876Z,10.90
2017-10-01T01:03:41.711Z,9.80
2017-10-01T01:06:09.524Z,8.30
2017-10-01T01:08:37.340Z,9.90
2017-10-01T01:11:05.145Z,9.80
2017-10-01T01:13:32.972Z,9.57
2017-10-01T01:16:00.839Z,7.70
2017-10-01T01:18:28.641Z,7.87
2017-10-01T01:20:56.449Z,8.10
2017-10-01T01:23:24.281Z,8.20
2017-10-01T01:25:51.810Z,8.30
2017-10-01T01:28:17.854Z,9.83
2017-10-01T01:30:43.899Z,15.00
2017-10-01T01:35:36.949Z,12.37
2017-10-01T01:38:02.973Z,12.73
2017-10-01T01:40:29.029Z,11.40
2017-10-01T01:42:55.053Z,17.17
2017-10-01T01:45:21.085Z,19.73
2017-10-01T01:47:47.166Z,21.20
2017-10-01T01:50:13.208Z,19.00
2017-10-01T01:52:39.250Z,24.47
2017-10-01T01:55:05.314Z,18.13
2017-10-01T01:57:32.077Z,16.50
2017-10-01T01:59:58.121Z,24.50
2017-10-01T02:02:24.165Z,18.67
2017-10-01T02:04:50.193Z,18.40
2017-10-01T02:07:16.255Z,12.90
2017-10-01T02:09:42.293Z,16.93
2017-10-01T02:12:08.372Z,22.33
2017-10-01T02:14:34.409Z,19.90
2017-10-01T02:17:00.461Z,20.60
2017-10-01T02:19:26.501Z,19.17
2017-10-01T02:21:52.553Z,21.73
2017-10-01T02:24:18.595Z,13.33
2017-10-01T02:26:44.697Z,16.43
2017-10-01T02:29:10.758Z,16.40
2017-10-01T02:31:37.542Z,19.37
2017-10-01T02:34:03.601Z,20.47
2017-10-01T02:36:29.637Z,26.93
2017-10-01T02:38:55.694Z,31.40
2017-10-01T02:41:21.804Z,24.67
2017-10-01T02:43:47.850Z,21.20
2017-10-01T02:46:13.894Z,19.53
2017-10-01T02:48:39.935Z,22.60
2017-10-01T02:51:06.710Z,23.43
2017-10-01T02:53:32.754Z,26.90
2017-10-01T02:55:58.787Z,25.33
2017-10-01T02:58:25.585Z,27.03
2017-10-01T03:00:51.634Z,24.30
2017-10-01T03:03:17.682Z,29.80
2017-10-01T03:05:43.745Z,30.37
2017-10-01T03:08:10.532Z,27.37
2017-10-01T03:10:36.577Z,29.93
2017-10-01T03:13:03.354Z,36.13
2017-10-01T03:15:29.427Z,22.10
2017-10-01T03:17:55.458Z,27.73
2017-10-01T03:20:21.489Z,28.00
2017-10-01T03:22:47.550Z,25.70
2017-10-01T03:25:13.914Z,22.03
2017-10-01T03:27:39.972Z,24.80
2017-10-01T03:30:06.013Z,23.97
2017-10-01T03:32:32.053Z,24.87
2017-10-01T03:34:58.098Z,28.70
2017-10-01T03:37:24.141Z,22.33
2017-10-01T03:39:50.166Z,21.80
2017-10-01T03:42:16.201Z,23.70
2017-10-01T03:44:42.984Z,28.73
2017-10-01T03:47:09.025Z,17.70
2017-10-01T03:49:35.064Z,24.93
2017-10-01T03:52:01.823Z,30.63
2017-10-01T03:54:27.864Z,37.17
2017-10-01T03:56:53.909Z,28.93
2017-10-01T03:59:19.953Z,20.17
2017-10-01T04:01:46.027Z,23.43
2017-10-01T04:04:12.057Z,26.10
2017-10-01T04:06:38.117Z,29.93
2017-10-01T04:09:04.162Z,27.73
2017-10-01T04:11:30.238Z,24.67
2017-10-01T04:13:57.076Z,22.57
2017-10-01T04:16:23.909Z,21.37
2017-10-01T04:18:50.732Z,25.97
2017-10-01T04:21:17.553Z,30.83
2017-10-01T04:23:43.619Z,37.37
2017-10-01T04:26:09.657Z,28.17
2017-10-01T04:28:35.729Z,27.27
2017-10-01T04:31:01.777Z,37.57
2017-10-01T04:33:27.824Z,23.97
2017-10-01T04:35:53.869Z,31.40
2017-10-01T04:38:19.936Z,46.40
2017-10-01T04:40:45.973Z,27.70
2017-10-01T04:43:12.012Z,23.83
2017-10-01T04:45:38.085Z,40.07
2017-10-01T04:48:04.152Z,31.90
2017-10-01T04:50:30.971Z,33.20
2017-10-01T04:52:57.022Z,39.10
2017-10-01T04:55:23.086Z,26.97
2017-10-01T04:57:49.141Z,22.80
2017-10-01T05:00:15.193Z,28.70
2017-10-01T05:02:41.264Z,27.67
2017-10-01T05:05:07.327Z,20.67
2017-10-01T05:07:33.366Z,39.03
2017-10-01T05:09:59.433Z,29.50
2017-10-01T05:12:25.484Z,32.20
2017-10-01T05:14:51.570Z,38.90
2017-10-01T05:17:18.720Z,25.53
2017-10-01T05:19:48.038Z,32.80
2017-10-01T05:22:14.137Z,32.70
2017-10-01T05:24:40.213Z,38.23
2017-10-01T05:27:07.040Z,34.70
2017-10-01T05:29:33.160Z,31.13
2017-10-01T05:31:59.520Z,40.30
2017-10-01T05:34:25.623Z,35.67
2017-10-01T05:36:51.710Z,34.47
2017-10-01T05:39:17.788Z,36.80
2017-10-01T05:41:44.855Z,28.70
2017-10-01T05:44:11.009Z,42.43
2017-10-01T05:46:37.081Z,35.83
2017-10-01T05:49:03.167Z,37.30
2017-10-01T05:51:29.297Z,26.93
2017-10-01T05:53:55.369Z,37.33
2017-10-01T05:56:22.213Z,36.53
2017-10-01T05:58:48.311Z,44.07
2017-10-01T06:01:15.261Z,35.63
2017-10-01T06:03:41.383Z,47.67
2017-10-01T06:06:07.510Z,40.67
2017-10-01T06:08:33.586Z,38.53
2017-10-01T06:10:59.670Z,41.90
2017-10-01T06:13:25.775Z,36.00
2017-10-01T06:15:51.834Z,36.17
2017-10-01T06:18:17.922Z,48.80
2017-10-01T06:20:44.731Z,41.47
2017-10-01T06:23:11.529Z,42.53
2017-10-01T06:25:37.613Z,56.57
2017-10-01T06:28:04.501Z,39.47
2017-10-01T06:30:30.595Z,48.77
2017-10-01T06:32:56.645Z,44.93
2017-10-01T06:35:22.736Z,50.10
2017-10-01T06:37:48.829Z,52.37
2017-10-01T06:40:14.894Z,46.33
2017-10-01T06:42:41.010Z,46.73
2017-10-01T06:45:07.045Z,45.87
2017-10-01T06:47:33.102Z,49.07
2017-10-01T06:49:59.197Z,47.03
2017-10-01T06:52:26.019Z,41.30
2017-10-01T06:54:52.849Z,45.77
2017-10-01T06:57:19.720Z,51.53
2017-10-01T06:59:45.810Z,48.00
2017-10-01T07:02:11.874Z,57.37
2017-10-01T07:04:37.943Z,43.07
2017-10-01T07:07:04.024Z,44.43
2017-10-01T07:09:30.117Z,49.97
2017-10-01T07:11:56.238Z,44.00
2017-10-01T07:14:23.081Z,42.73
2017-10-01T07:16:49.241Z,43.43
2017-10-01T07:19:15.308Z,39.87
2017-10-01T07:21:41.402Z,43.20
2017-10-01T07:24:08.201Z,38.83
2017-10-01T07:26:34.268Z,47.10
2017-10-01T07:29:00.342Z,44.07
2017-10-01T07:31:27.137Z,48.53
2017-10-01T07:33:53.182Z,42.53
2017-10-01T07:36:19.306Z,41.53
2017-10-01T07:38:45.401Z,36.70
2017-10-01T07:41:11.489Z,52.77
2017-10-01T07:43:38.294Z,37.50
2017-10-01T07:46:04.363Z,41.10
2017-10-01T07:48:30.441Z,43.60
2017-10-01T07:50:57.253Z,40.63
2017-10-01T07:53:23.352Z,37.90
2017-10-01T07:55:49.404Z,44.10
2017-10-01T07:58:15.489Z,44.47
2017-10-01T08:00:41.526Z,38.27
2017-10-01T08:03:07.593Z,37.27
2017-10-01T08:05:33.871Z,42.97
2017-10-01T08:07:59.736Z,41.90
2017-10-01T08:10:25.780Z,46.47
2017-10-01T08:12:51.876Z,39.07
2017-10-01T08:15:17.974Z,46.53
2017-10-01T08:17:44.781Z,49.93
2017-10-01T08:20:10.826Z,42.97
2017-10-01T08:22:36.894Z,45.30
2017-10-01T08:25:03.862Z,32.97
2017-10-01T08:27:29.919Z,43.60
2017-10-01T08:29:55.986Z,36.57
2017-10-01T08:32:22.024Z,34.47
2017-10-01T08:34:48.108Z,30.67
2017-10-01T08:37:14.170Z,30.47
2017-10-01T08:39:40.217Z,28.10
2017-10-01T08:42:06.293Z,28.40
2017-10-01T08:44:32.342Z,27.23
2017-10-01T08:47:00.199Z,29.03
2017-10-01T08:49:28.037Z,29.53
2017-10-01T08:51:55.888Z,29.20
2017-10-01T08:54:23.725Z,29.80
2017-10-01T08:56:51.533Z,31.43
2017-10-01T08:59:19.358Z,22.33
2017-10-01T09:01:47.179Z,19.80
2017-10-01T09:04:15.013Z,27.60
2017-10-01T09:06:42.837Z,18.50
2017-10-01T09:09:08.908Z,25.60
2017-10-01T09:11:34.980Z,25.00
2017-10-01T09:14:01.797Z,22.97
2017-10-01T09:16:27.864Z,26.97
2017-10-01T09:18:53.910Z,30.63
2017-10-01T09:21:19.986Z,27.27
2017-10-01T09:23:46.076Z,31.10
2017-10-01T09:26:12.132Z,24.97
2017-10-01T09:28:38.200Z,33.13
2017-10-01T09:31:04.273Z,27.87
2017-10-01T09:33:30.346Z,21.57
2017-10-01T09:35:58.190Z,18.17
2017-10-01T09:38:26.041Z,21.27
2017-10-01T09:40:53.907Z,12.57
2017-10-01T09:43:21.733Z,14.27
2017-10-01T09:45:49.558Z,25.47
2017-10-01T09:48:17.363Z,16.67
2017-10-01T09:50:45.224Z,14.57
2017-10-01T09:53:13.069Z,18.07
2017-10-01T09:55:40.904Z,15.93
2017-10-01T09:58:08.767Z,20.30
2017-10-01T10:00:36.592Z,13.73
2017-10-01T10:03:04.430Z,15.63
2017-10-01T10:05:32.265Z,16.50
2017-10-01T10:08:00.121Z,20.60
2017-10-01T10:10:27.952Z,11.53
2017-10-01T10:12:55.776Z,14.10
2017-10-01T10:15:23.584Z,14.20
2017-10-01T10:17:51.416Z,12.33
2017-10-01T10:20:17.521Z,16.77
2017-10-01T10:22:44.309Z,20.63
2017-10-01T10:25:10.413Z,31.03
2017-10-01T10:27:36.511Z,19.23
2017-10-01T10:30:02.556Z,19.80
2017-10-01T10:32:28.636Z,12.63
2017-10-01T10:34:54.731Z,23.17
2017-10-01T10:37:20.797Z,14.83
2017-10-01T10:39:47.615Z,10.40
2017-10-01T10:42:13.733Z,12.33
2017-10-01T10:44:39.826Z,18.10
2017-10-01T10:47:05.876Z,17.10
2017-10-01T10:49:32.271Z,8.47
2017-10-01T10:51:59.069Z,17.80
2017-10-01T10:54:25.136Z,25.10
2017-10-01T10:56:51.222Z,9.83
2017-10-01T10:59:18.121Z,10.87
2017-10-01T11:01:44.207Z,14.70
2017-10-01T11:04:10.313Z,12.90
2017-10-01T11:06:36.398Z,23.13
2017-10-01T11:09:02.487Z,16.40
2017-10-01T11:11:28.584Z,14.07
2017-10-01T11:13:55.426Z,12.70
2017-10-01T11:16:22.245Z,14.53
2017-10-01T11:18:49.047Z,9.07
2017-10-01T11:21:15.126Z,13.50
2017-10-01T11:23:41.182Z,15.33
2017-10-01T11:26:08.090Z,14.77
2017-10-01T11:28:34.221Z,10.80
2017-10-01T11:31:01.105Z,11.00
2017-10-01T11:33:27.346Z,12.43
2017-10-01T11:35:53.397Z,9.77
2017-10-01T11:38:20.254Z,13.43
2017-10-01T11:40:46.322Z,14.27
2017-10-01T11:43:13.113Z,15.93
2017-10-01T11:45:39.244Z,15.17
2017-10-01T11:48:06.067Z,8.23
2017-10-01T11:50:32.946Z,15.47
2017-10-01T11:52:59.003Z,7.53
2017-10-01T11:55:25.824Z,10.63
2017-10-01T11:57:51.866Z,6.17
2017-10-01T12:00:17.902Z,16.03
2017-10-01T12:02:43.977Z,7.70
2017-10-01T12:05:10.778Z,6.90
2017-10-01T12:07:36.841Z,8.17
2017-10-01T12:10:02.953Z,6.77
2017-10-01T12:12:29.024Z,6.60
2017-10-01T12:14:55.853Z,17.90
2017-10-01T12:17:21.910Z,6.57
2017-10-01T12:19:48.010Z,6.90
2017-10-01T12:22:14.053Z,12.33
2017-10-01T12:24:40.110Z,9.43
2017-10-01T12:27:06.174Z,11.77
2017-10-01T12:29:32.260Z,10.50
2017-10-01T12:31:58.352Z,11.87
2017-10-01T12:34:24.405Z,14.73
2017-10-01T12:36:50.489Z,5.17
2017-10-01T12:39:16.521Z,5.47
2017-10-01T12:41:42.568Z,12.90
2017-10-01T12:44:08.633Z,16.33
2017-10-01T12:46:34.695Z,8.60
2017-10-01T12:49:00.748Z,6.40
2017-10-01T12:51:26.798Z,8.87
2017-10-01T12:53:53.602Z,8.73
2017-10-01T12:56:19.670Z,5.27
2017-10-01T12:58:45.763Z,4.30
2017-10-01T13:01:11.834Z,3.60
2017-10-01T13:03:37.902Z,5.97
2017-10-01T13:06:03.949Z,15.33
2017-10-01T13:08:29.998Z,6.90
2017-10-01T13:10:56.055Z,8.73
2017-10-01T13:13:22.121Z,5.47
2017-10-01T13:15:48.151Z,11.80
2017-10-01T13:18:14.191Z,6.80
2017-10-01T13:20:40.230Z,4.97
2017-10-01T13:23:07.013Z,3.53
2017-10-01T13:25:33.082Z,8.37
2017-10-01T13:27:59.161Z,9.00
2017-10-01T13:30:25.961Z,9.23
2017-10-01T13:32:52.025Z,5.60
2017-10-01T13:35:18.117Z,11.43
2017-10-01T13:37:44.893Z,13.30
2017-10-01T13:40:10.996Z,8.60
2017-10-01T13:42:37.086Z,8.37
2017-10-01T13:45:03.166Z,19.53
2017-10-01T13:47:30.933Z,12.13
2017-10-01T13:49:57.014Z,17.23
2017-10-01T13:52:23.096Z,11.13
2017-10-01T13:54:49.168Z,10.60
2017-10-01T13:57:15.259Z,7.80
2017-10-01T13:59:41.364Z,11.10
2017-10-01T14:02:08.217Z,11.93
2017-10-01T14:04:34.326Z,6.47
2017-10-01T14:07:00.400Z,5.77
2017-10-01T14:09:26.457Z,7.43
2017-10-01T14:11:52.543Z,8.93
2017-10-01T14:14:18.621Z,6.83
2017-10-01T14:16:44.666Z,5.30
2017-10-01T14:19:10.707Z,9.50
2017-10-01T14:21:36.758Z,8.00
2017-10-01T14:24:02.809Z,14.53
2017-10-01T14:26:28.881Z,6.50
2017-10-01T14:28:55.697Z,7.37
2017-10-01T14:31:22.813Z,7.20
2017-10-01T14:33:48.869Z,7.60
2017-10-01T14:36:15.678Z,8.73
2017-10-01T14:38:41.713Z,5.63
2017-10-01T14:41:07.794Z,15.93
2017-10-01T14:43:34.608Z,9.77
2017-10-01T14:46:00.676Z,3.83
2017-10-01T14:48:26.749Z,13.47
2017-10-01T14:50:52.796Z,13.23
2017-10-01T14:53:18.849Z,6.27
2017-10-01T14:55:45.644Z,4.37
2017-10-01T14:58:11.717Z,11.00
2017-10-01T15:00:37.791Z,5.30
2017-10-01T15:03:04.634Z,7.70
2017-10-01T15:05:30.681Z,5.93
2017-10-01T15:07:56.764Z,5.87
2017-10-01T15:10:22.817Z,17.40
2017-10-01T15:12:48.881Z,10.50
2017-10-01T15:15:14.949Z,14.33
2017-10-01T15:17:41.001Z,8.83
2017-10-01T15:20:07.787Z,13.90
2017-10-01T15:22:33.855Z,6.17
2017-10-01T15:24:59.901Z,7.80
2017-10-01T15:27:26.008Z,8.73
2017-10-01T15:29:52.057Z,8.67
2017-10-01T15:32:18.848Z,8.47
2017-10-01T15:34:44.900Z,10.40
2017-10-01T15:37:10.993Z,13.03
2017-10-01T15:39:37.819Z,9.10
2017-10-01T15:42:04.639Z,16.57
2017-10-01T15:44:30.702Z,11.30
2017-10-01T15:46:56.741Z,14.37
2017-10-01T15:49:23.581Z,9.80
2017-10-01T15:51:49.692Z,7.10
2017-10-01T15:54:15.744Z,16.43
2017-10-01T15:56:41.804Z,7.60
2017-10-01T15:59:08.669Z,4.83
2017-10-01T16:01:34.729Z,8.63
2017-10-01T16:04:00.797Z,7.47
2017-10-01T16:06:26.861Z,10.17
2017-10-01T16:08:52.909Z,6.87
2017-10-01T16:11:18.994Z,6.67
2017-10-01T16:13:45.097Z,7.33
2017-10-01T16:16:11.177Z,9.80
2017-10-01T16:18:37.282Z,6.73
2017-10-01T16:21:03.353Z,11.00
2017-10-01T16:23:29.430Z,16.80
2017-10-01T16:25:55.509Z,10.20
2017-10-01T16:28:21.602Z,7.27
2017-10-01T16:30:47.673Z,14.00
2017-10-01T16:33:14.469Z,22.20
2017-10-01T16:35:40.535Z,20.50
2017-10-01T16:38:06.589Z,6.93
2017-10-01T16:40:32.646Z,10.90
2017-10-01T16:42:59.438Z,15.40
2017-10-01T16:45:25.527Z,8.40
2017-10-01T16:47:51.593Z,10.47
2017-10-01T16:50:17.620Z,12.77
2017-10-01T16:52:43.685Z,11.97
2017-10-01T16:55:09.752Z,9.90
2017-10-01T16:57:35.809Z,14.17
2017-10-01T17:00:01.882Z,11.43
2017-10-01T17:02:27.962Z,8.13
2017-10-01T17:04:54.030Z,13.80
2017-10-01T17:07:20.856Z,10.20
2017-10-01T17:09:47.104Z,20.10
2017-10-01T17:12:13.170Z,10.47
2017-10-01T17:14:39.217Z,14.20
2017-10-01T17:17:05.353Z,8.63
2017-10-01T17:19:31.438Z,12.23
2017-10-01T17:21:57.692Z,9.47
2017-10-01T17:24:23.773Z,11.50
2017-10-01T17:26:49.810Z,15.50
2017-10-01T17:29:15.986Z,11.07
2017-10-01T17:31:42.066Z,12.77
2017-10-01T17:34:12.601Z,6.83
2017-10-01T17:36:38.682Z,9.23
2017-10-01T17:39:05.509Z,10.20
2017-10-01T17:41:31.665Z,8.10
2017-10-01T17:43:57.720Z,10.50
2017-10-01T17:46:23.774Z,9.33
2017-10-01T17:48:49.852Z,23.23
2017-10-01T17:51:16.660Z,10.53
2017-10-01T17:53:42.725Z,13.80
2017-10-01T17:56:08.781Z,7.50
2017-10-01T17:58:34.832Z,12.60
2017-10-01T18:01:01.721Z,10.20
2017-10-01T18:03:27.897Z,14.03
2017-10-01T18:05:53.974Z,11.97
2017-10-01T18:08:20.780Z,15.03
2017-10-01T18:10:47.611Z,12.77
2017-10-01T18:13:13.663Z,8.20
2017-10-01T18:15:39.731Z,11.73
2017-10-01T18:18:05.794Z,20.80
2017-10-01T18:20:31.845Z,18.93
2017-10-01T18:22:58.013Z,12.17
2017-10-01T18:25:24.077Z,13.97
2017-10-01T18:27:50.877Z,14.10
2017-10-01T18:30:16.929Z,24.97
2017-10-01T18:32:43.006Z,15.83
2017-10-01T18:35:09.088Z,13.80
2017-10-01T18:37:35.150Z,18.00
2017-10-01T18:40:01.954Z,18.33
2017-10-01T18:42:28.767Z,14.40
2017-10-01T18:44:54.846Z,15.93
2017-10-01T18:47:20.944Z,13.60
2017-10-01T18:49:46.997Z,18.40
2017-10-01T18:52:13.059Z,14.60
2017-10-01T18:54:39.110Z,15.63
2017-10-01T18:57:05.163Z,15.60
2017-10-01T18:59:31.308Z,11.10
2017-10-01T19:01:57.381Z,18.37
2017-10-01T19:04:23.445Z,22.27
2017-10-01T19:06:49.493Z,20.50
2017-10-01T19:09:16.321Z,13.63
2017-10-01T19:11:42.387Z,22.80
2017-10-01T19:14:08.445Z,21.43
2017-10-01T19:16:35.234Z,10.30
2017-10-01T19:19:01.313Z,14.63
2017-10-01T19:21:27.376Z,13.87
2017-10-01T19:23:53.422Z,18.10
2017-10-01T19:26:19.465Z,12.67
2017-10-01T19:28:45.551Z,12.10
2017-10-01T19:31:11.577Z,15.67
2017-10-01T19:33:37.621Z,18.27
2017-10-01T19:36:04.429Z,16.47
2017-10-01T19:38:30.489Z,21.27
2017-10-01T19:40:56.551Z,13.80
2017-10-01T19:43:22.708Z,13.30
2017-10-01T19:45:48.808Z,18.27
2017-10-01T19:48:14.885Z,13.03
2017-10-01T19:50:41.702Z,15.77
2017-10-01T19:53:07.778Z,16.63
2017-10-01T19:55:33.857Z,12.00
2017-10-01T19:57:59.910Z,20.37
2017-10-01T20:00:25.978Z,10.10
2017-10-01T20:02:52.057Z,10.17
2017-10-01T20:05:18.146Z,13.07
2017-10-01T20:07:44.189Z,16.50
2017-10-01T20:10:10.251Z,20.13
2017-10-01T20:12:36.333Z,17.70
2017-10-01T20:15:02.409Z,15.93
2017-10-01T20:17:29.296Z,13.90
2017-10-01T20:19:55.362Z,15.63
2017-10-01T20:22:21.401Z,18.93
2017-10-01T20:24:47.469Z,14.57
2017-10-01T20:27:14.269Z,14.87
2017-10-01T20:29:40.330Z,18.27
2017-10-01T20:32:06.712Z,16.53
2017-10-01T20:34:33.512Z,20.80
2017-10-01T20:36:59.574Z,17.73
2017-10-01T20:39:26.370Z,20.93
2017-10-01T20:41:52.441Z,15.80
2017-10-01T20:44:18.518Z,19.40
2017-10-01T20:46:45.313Z,18.70
2017-10-01T20:49:11.377Z,23.43
2017-10-01T20:51:37.461Z,18.27
2017-10-01T20:54:04.249Z,18.57
2017-10-01T20:56:30.297Z,19.10
2017-10-01T20:58:57.086Z,18.63
2017-10-01T21:01:23.146Z,13.20
2017-10-01T21:06:47.380Z,24.70
2017-10-01T21:09:13.454Z,17.43
2017-10-01T21:11:39.550Z,14.80
2017-10-01T21:14:05.608Z,13.10
2017-10-01T21:16:31.697Z,18.70
2017-10-01T21:18:57.752Z,16.73
2017-10-01T21:21:24.545Z,19.30
2017-10-01T21:23:50.674Z,34.33
2017-10-01T21:26:17.477Z,24.00
2017-10-01T21:28:43.584Z,18.90
2017-10-01T21:31:09.634Z,20.90
2017-10-01T21:33:35.737Z,22.80
2017-10-01T21:36:01.785Z,21.73
2017-10-01T21:38:27.876Z,26.60
2017-10-01T21:40:53.956Z,20.47
2017-10-01T21:43:20.774Z,17.93
2017-10-01T21:45:47.582Z,17.27
2017-10-01T21:48:13.662Z,18.40
2017-10-01T21:50:39.753Z,13.93
2017-10-01T21:53:05.838Z,19.07
2017-10-01T21:55:32.673Z,12.77
2017-10-01T21:57:59.469Z,20.00
2017-10-01T22:00:25.560Z,12.93
2017-10-01T22:02:51.605Z,14.47
2017-10-01T22:05:17.665Z,18.77
2017-10-01T22:07:43.733Z,20.57
2017-10-01T22:10:10.560Z,9.70
2017-10-01T22:12:37.363Z,16.23
2017-10-01T22:15:04.242Z,17.53
2017-10-01T22:17:30.288Z,13.67
2017-10-01T22:19:56.477Z,18.13
2017-10-01T22:22:22.533Z,12.00
2017-10-01T22:24:49.325Z,14.50
2017-10-01T22:27:15.364Z,13.53
2017-10-01T22:29:41.425Z,12.10
2017-10-01T22:32:07.468Z,19.40
2017-10-01T22:34:33.539Z,11.50
2017-10-01T22:36:59.601Z,17.23
2017-10-01T22:39:25.638Z,16.23
2017-10-01T22:41:51.710Z,14.70
2017-10-01T22:44:17.760Z,8.73
2017-10-01T22:46:43.800Z,24.27
2017-10-01T22:49:09.861Z,18.23
2017-10-01T22:51:35.937Z,15.57
2017-10-01T22:54:02.002Z,12.53
2017-10-01T22:56:28.075Z,21.03
2017-10-01T22:58:54.138Z,15.40
2017-10-01T23:01:20.223Z,27.27
2017-10-01T23:03:46.305Z,12.57
2017-10-01T23:06:12.373Z,20.60
2017-10-01T23:08:38.466Z,19.67
2017-10-01T23:11:04.524Z,15.63
2017-10-01T23:13:30.569Z,16.83
2017-10-01T23:15:56.624Z,18.63
2017-10-01T23:18:22.701Z,23.57
2017-10-01T23:20:48.779Z,10.40
2017-10-01T23:23:15.621Z,12.40
2017-10-01T23:25:41.761Z,10.70
2017-10-01T23:28:07.869Z,19.40
2017-10-01T23:30:33.933Z,14.30
2017-10-01T23:33:00.752Z,13.70
2017-10-01T23:35:26.817Z,12.07
2017-10-01T23:37:52.885Z,16.10
2017-10-01T23:40:18.953Z,11.47
2017-10-01T23:42:45.020Z,12.83
2017-10-01T23:45:11.092Z,20.30
2017-10-01T23:47:37.178Z,13.83
2017-10-01T23:50:03.257Z,11.67
2017-10-01T23:52:29.312Z,11.13
2017-10-01T23:54:55.381Z,12.20
2017-10-01T23:57:21.433Z,11.20
2017-10-01T23:59:47.488Z,13.10
